x

Capers Nearshore (cap 2) (41029) Weather Station

6:08pm - Sun 5th Jul 2015 All times are EDT. -4 hours from GMT.

  • Wind
    18mph, 25mph gusts
  • Air Temp 83°f
  • Sea Pressure 1020.1mb
  • Capers Nearshore (cap 2)
  • Capers Nearshore (cap 2)

More Historic Weather Station data

Upgrade to MSW Pro to gain access to the past 30 days of data for over 8000 Wavebouys and Weather Stations around the globe.

Join Pro

Comparision Forecast

View Surf forecast
   
Sun 07/05 6:08pm 18 25 mph 1020.1mb 83f
5:08pm 16 20 mph 1020mb 83f
4:08pm 16 20 mph 1020.5mb 83f
3:08pm 16 20 mph 1020.8mb 82f
2:08pm 13 16 mph 1021.1mb 82f
1:08pm 13 18 mph 1021.4mb 82f
12:08pm 13 16 mph 1021.5mb 82f
11:08am 11 16 mph 1021.5mb 81f
10:08am 11 13 mph 1021.4mb 81f
9:08am 13 16 mph 1021.5mb 81f
8:08am 16 18 mph 1021.3mb 80f
7:08am 13 16 mph 1020.7mb 80f
6:08am 13 16 mph 1020.2mb 81f
5:08am 16 22 mph 1019.7mb 80f
4:08am 18 22 mph 1019.4mb 80f
3:08am 18 20 mph 1019.3mb 80f
2:08am 18 22 mph 1019.3mb 81f
1:08am 16 20 mph 1019.7mb 81f
12:08am 16 18 mph 1019.7mb 80f
Sat 07/04 11:08pm 13 16 mph 1019.4mb 80f
10:08pm 13 16 mph 1018.7mb 80f
9:08pm 13 20 mph 1018.6mb 79f
8:08pm 25 38 mph 1019.5mb 82f
7:08pm 18 22 mph 1017.8mb 82f
6:08pm 18 22 mph 1018.5mb 82f
5:08pm 16 20 mph 1018.3mb 82f
4:08pm 18 22 mph 1018.2mb 82f
3:08pm 18 22 mph 1018.6mb 83f
2:08pm 16 20 mph 1018.9mb 82f
1:08pm 13 18 mph 1019.1mb 82f
12:08pm 11 13 mph 1019.1mb 82f
11:08am 9 13 mph 1018.9mb 81f
10:08am 9 11 mph 1018.6mb 80f
9:08am 4 9 mph 1018.5mb 78f
8:08am 7 11 mph 1018.3mb 78f
7:08am 13 18 mph 1017.7mb 82f
6:08am  -  mph 1017.3mb 81f
5:08am 9 11 mph 1017.2mb 80f
4:08am 11 16 mph 1017mb 79f
3:08am 20 31 mph 1017.9mb 80f
2:08am 22 31 mph 1017.1mb 83f
1:08am 22 29 mph 1017mb 83f
12:08am 22 29 mph 1017.3mb 82f
Fri 07/03 11:08pm 20 27 mph 1017mb 82f
10:08pm 20 25 mph 1016.4mb 82f
9:08pm 22 29 mph 1015.7mb 81f
8:08pm 20 25 mph 1016.1mb 82f
7:08pm 18 25 mph 1015.6mb 81f
6:08pm 16 22 mph 1016.3mb 79f
5:08pm 18 25 mph 1016.5mb 78f
4:08pm 20 29 mph 1016.8mb 74f
3:08pm 20 27 mph 1015.1mb 82f
2:08pm 20 25 mph 1016.2mb 82f
1:08pm 18 22 mph 1016.5mb 81f
12:08pm 18 22 mph 1017.1mb 80f
11:08am 18 22 mph 1017mb 80f
10:08am 20 29 mph 1016.6mb 78f
9:08am 25 36 mph 1016.7mb 75f
8:08am 25 34 mph 1016.6mb 79f
7:08am 22 29 mph 1016.3mb 81f
6:08am 22 31 mph 1015.9mb 80f
5:08am 22 29 mph 1015.6mb 80f
4:08am 22 27 mph 1016.3mb 80f
3:08am 20 27 mph 1017.3mb 79f
2:08am 16 20 mph 1015.7mb 76f
1:08am 13 18 mph 1015.3mb 75f
12:08am 11 16 mph 1016.1mb 74f
Thu 07/02 11:08pm 11 16 mph 1016.1mb 74f
10:08pm 16 22 mph 1016.9mb 74f
9:08pm 22 31 mph 1016.8mb 73f
8:08pm 25 34 mph 1014.8mb 82f
7:08pm 22 31 mph 1014mb 83f
6:08pm 20 29 mph 1014.1mb 82f
5:08pm 20 27 mph 1014.5mb 82f
4:08pm 18 22 mph 1015.1mb 82f
3:08pm 18 22 mph 1015.8mb 81f
2:08pm 25 31 mph 1017mb 80f
1:08pm 13 18 mph 1016.8mb 82f
12:08pm 13 16 mph 1016.9mb 82f
11:08am 13 16 mph 1017.1mb 82f
10:08am 16 20 mph 1016.8mb 81f
9:08am 16 18 mph 1016.8mb 80f
8:08am 16 20 mph 1016.6mb 79f
7:08am 13 16 mph 1015.9mb 78f
6:08am 13 18 mph 1015.4mb 78f
5:08am 18 22 mph 1015.1mb 80f
4:08am 16 20 mph 1015mb 81f
3:08am 16 20 mph 1015.6mb 81f
2:08am 18 22 mph 1016.1mb 82f
1:08am 9 13 mph 1016.3mb 83f
12:08am 18 22 mph 1016.8mb 82f